sensor_id;sensor_type;location;lat;lon;timestamp;P1;durP1;ratioP1;P2;durP2;ratioP2
19754;SDS011;10036;47.812;9.274;2022-07-29T00:01:57;2.17;;;1.98;;
19754;SDS011;10036;47.812;9.274;2022-07-29T00:04:24;3.03;;;1.85;;
19754;SDS011;10036;47.812;9.274;2022-07-29T00:06:50;2.25;;;2.05;;
19754;SDS011;10036;47.812;9.274;2022-07-29T00:09:17;2.88;;;1.67;;
19754;SDS011;10036;47.812;9.274;2022-07-29T00:11:46;2.05;;;1.80;;
19754;SDS011;10036;47.812;9.274;2022-07-29T00:14:13;1.80;;;1.60;;
19754;SDS011;10036;47.812;9.274;2022-07-29T00:16:40;2.40;;;1.70;;
19754;SDS011;10036;47.812;9.274;2022-07-29T00:19:06;2.22;;;1.70;;
19754;SDS011;10036;47.812;9.274;2022-07-29T00:21:33;1.92;;;1.80;;
19754;SDS011;10036;47.812;9.274;2022-07-29T00:24:00;3.92;;;1.90;;
19754;SDS011;10036;47.812;9.274;2022-07-29T00:26:27;1.80;;;1.70;;
19754;SDS011;10036;47.812;9.274;2022-07-29T00:28:58;1.95;;;1.80;;
19754;SDS011;10036;47.812;9.274;2022-07-29T00:31:25;1.98;;;1.75;;
19754;SDS011;10036;47.812;9.274;2022-07-29T00:33:53;2.47;;;1.95;;
19754;SDS011;10036;47.812;9.274;2022-07-29T00:36:20;2.17;;;1.70;;
19754;SDS011;10036;47.812;9.274;2022-07-29T00:38:46;1.80;;;1.70;;
19754;SDS011;10036;47.812;9.274;2022-07-29T00:41:13;2.28;;;1.77;;
19754;SDS011;10036;47.812;9.274;2022-07-29T00:43:40;5.78;;;1.80;;
19754;SDS011;10036;47.812;9.274;2022-07-29T00:46:08;2.75;;;1.45;;
19754;SDS011;10036;47.812;9.274;2022-07-29T00:48:36;2.35;;;1.50;;
19754;SDS011;10036;47.812;9.274;2022-07-29T00:51:04;1.80;;;1.70;;
19754;SDS011;10036;47.812;9.274;2022-07-29T00:53:32;2.20;;;1.80;;
19754;SDS011;10036;47.812;9.274;2022-07-29T00:56:01;3.15;;;1.70;;
19754;SDS011;10036;47.812;9.274;2022-07-29T00:58:28;2.08;;;1.88;;
19754;SDS011;10036;47.812;9.274;2022-07-29T01:00:55;1.90;;;1.80;;
19754;SDS011;10036;47.812;9.274;2022-07-29T01:03:25;3.33;;;2.00;;
19754;SDS011;10036;47.812;9.274;2022-07-29T01:05:52;3.40;;;2.20;;
19754;SDS011;10036;47.812;9.274;2022-07-29T01:08:20;2.30;;;2.05;;
19754;SDS011;10036;47.812;9.274;2022-07-29T01:10:48;1.50;;;1.40;;
19754;SDS011;10036;47.812;9.274;2022-07-29T01:13:17;1.95;;;1.52;;
19754;SDS011;10036;47.812;9.274;2022-07-29T01:15:46;1.33;;;1.23;;
19754;SDS011;10036;47.812;9.274;2022-07-29T01:18:18;1.77;;;1.23;;
19754;SDS011;10036;47.812;9.274;2022-07-29T01:20:55;1.73;;;1.50;;
19754;SDS011;10036;47.812;9.274;2022-07-29T01:23:42;2.50;;;1.58;;
19754;SDS011;10036;47.812;9.274;2022-07-29T01:26:28;2.72;;;1.70;;
19754;SDS011;10036;47.812;9.274;2022-07-29T01:29:07;2.10;;;1.83;;
19754;SDS011;10036;47.812;9.274;2022-07-29T01:31:41;2.28;;;1.45;;
19754;SDS011;10036;47.812;9.274;2022-07-29T01:34:12;1.67;;;1.52;;
19754;SDS011;10036;47.812;9.274;2022-07-29T01:36:47;1.60;;;1.50;;
19754;SDS011;10036;47.812;9.274;2022-07-29T01:39:19;2.38;;;1.90;;
19754;SDS011;10036;47.812;9.274;2022-07-29T01:41:50;3.63;;;2.00;;
19754;SDS011;10036;47.812;9.274;2022-07-29T01:44:26;2.78;;;2.20;;
19754;SDS011;10036;47.812;9.274;2022-07-29T01:46:58;2.80;;;1.83;;
19754;SDS011;10036;47.812;9.274;2022-07-29T01:49:31;2.03;;;1.80;;
19754;SDS011;10036;47.812;9.274;2022-07-29T01:52:05;3.85;;;2.08;;
19754;SDS011;10036;47.812;9.274;2022-07-29T01:54:38;2.38;;;1.85;;
19754;SDS011;10036;47.812;9.274;2022-07-29T01:57:08;3.90;;;1.90;;
19754;SDS011;10036;47.812;9.274;2022-07-29T01:59:39;2.72;;;2.40;;
19754;SDS011;10036;47.812;9.274;2022-07-29T02:02:09;2.10;;;2.00;;
19754;SDS011;10036;47.812;9.274;2022-07-29T02:04:37;4.03;;;2.17;;
19754;SDS011;10036;47.812;9.274;2022-07-29T02:07:07;2.33;;;2.03;;
19754;SDS011;10036;47.812;9.274;2022-07-29T02:09:36;2.00;;;1.90;;
19754;SDS011;10036;47.812;9.274;2022-07-29T02:12:05;3.72;;;1.60;;
19754;SDS011;10036;47.812;9.274;2022-07-29T02:14:36;1.92;;;1.75;;
19754;SDS011;10036;47.812;9.274;2022-07-29T02:17:05;2.13;;;1.70;;
19754;SDS011;10036;47.812;9.274;2022-07-29T02:19:33;2.50;;;1.80;;
19754;SDS011;10036;47.812;9.274;2022-07-29T02:22:01;2.28;;;2.10;;
19754;SDS011;10036;47.812;9.274;2022-07-29T02:24:28;2.35;;;2.00;;
19754;SDS011;10036;47.812;9.274;2022-07-29T02:26:57;5.38;;;2.10;;
19754;SDS011;10036;47.812;9.274;2022-07-29T02:29:26;3.15;;;2.25;;
19754;SDS011;10036;47.812;9.274;2022-07-29T02:31:54;3.80;;;2.13;;
19754;SDS011;10036;47.812;9.274;2022-07-29T02:34:24;4.20;;;2.03;;
19754;SDS011;10036;47.812;9.274;2022-07-29T02:36:52;5.28;;;2.28;;
19754;SDS011;10036;47.812;9.274;2022-07-29T02:39:21;3.13;;;2.05;;
19754;SDS011;10036;47.812;9.274;2022-07-29T02:41:51;5.68;;;2.17;;
19754;SDS011;10036;47.812;9.274;2022-07-29T02:44:23;3.47;;;2.38;;
19754;SDS011;10036;47.812;9.274;2022-07-29T02:46:52;3.10;;;2.28;;
19754;SDS011;10036;47.812;9.274;2022-07-29T02:49:27;3.65;;;2.40;;
19754;SDS011;10036;47.812;9.274;2022-07-29T02:52:02;5.82;;;2.30;;
19754;SDS011;10036;47.812;9.274;2022-07-29T02:54:31;4.07;;;2.60;;
19754;SDS011;10036;47.812;9.274;2022-07-29T02:57:06;3.72;;;2.58;;
19754;SDS011;10036;47.812;9.274;2022-07-29T02:59:40;2.00;;;1.90;;
19754;SDS011;10036;47.812;9.274;2022-07-29T03:02:09;3.40;;;2.20;;
19754;SDS011;10036;47.812;9.274;2022-07-29T03:04:38;5.43;;;2.50;;
19754;SDS011;10036;47.812;9.274;2022-07-29T03:07:08;4.03;;;2.40;;
19754;SDS011;10036;47.812;9.274;2022-07-29T03:09:36;2.40;;;2.20;;
19754;SDS011;10036;47.812;9.274;2022-07-29T03:12:04;2.92;;;2.15;;
19754;SDS011;10036;47.812;9.274;2022-07-29T03:14:32;3.70;;;2.50;;
19754;SDS011;10036;47.812;9.274;2022-07-29T03:16:59;2.40;;;2.20;;
19754;SDS011;10036;47.812;9.274;2022-07-29T03:19:26;2.88;;;2.08;;
19754;SDS011;10036;47.812;9.274;2022-07-29T03:21:57;2.38;;;2.17;;
19754;SDS011;10036;47.812;9.274;2022-07-29T03:24:27;3.25;;;1.77;;
19754;SDS011;10036;47.812;9.274;2022-07-29T03:26:56;2.25;;;2.00;;
19754;SDS011;10036;47.812;9.274;2022-07-29T03:29:23;2.28;;;1.77;;
19754;SDS011;10036;47.812;9.274;2022-07-29T03:31:50;4.93;;;2.30;;
19754;SDS011;10036;47.812;9.274;2022-07-29T03:34:18;4.90;;;2.90;;
19754;SDS011;10036;47.812;9.274;2022-07-29T03:36:45;8.85;;;2.80;;
19754;SDS011;10036;47.812;9.274;2022-07-29T03:39:14;3.80;;;2.70;;
19754;SDS011;10036;47.812;9.274;2022-07-29T03:41:44;3.95;;;2.55;;
19754;SDS011;10036;47.812;9.274;2022-07-29T03:44:13;4.18;;;2.50;;
19754;SDS011;10036;47.812;9.274;2022-07-29T03:46:43;5.20;;;2.40;;
19754;SDS011;10036;47.812;9.274;2022-07-29T03:49:11;3.63;;;2.40;;
19754;SDS011;10036;47.812;9.274;2022-07-29T03:51:42;3.25;;;2.20;;
19754;SDS011;10036;47.812;9.274;2022-07-29T03:54:09;2.58;;;2.38;;
19754;SDS011;10036;47.812;9.274;2022-07-29T03:56:39;4.30;;;2.42;;
19754;SDS011;10036;47.812;9.274;2022-07-29T03:59:11;2.47;;;2.25;;
19754;SDS011;10036;47.812;9.274;2022-07-29T04:01:40;3.80;;;2.20;;
19754;SDS011;10036;47.812;9.274;2022-07-29T04:04:08;3.15;;;2.25;;
19754;SDS011;10036;47.812;9.274;2022-07-29T04:06:38;2.83;;;2.00;;
19754;SDS011;10036;47.812;9.274;2022-07-29T04:09:05;3.90;;;2.30;;
19754;SDS011;10036;47.812;9.274;2022-07-29T04:11:33;3.80;;;2.25;;
19754;SDS011;10036;47.812;9.274;2022-07-29T04:14:03;2.97;;;2.67;;
19754;SDS011;10036;47.812;9.274;2022-07-29T04:16:29;5.20;;;2.85;;
19754;SDS011;10036;47.812;9.274;2022-07-29T04:18:56;5.22;;;2.85;;
19754;SDS011;10036;47.812;9.274;2022-07-29T04:21:23;3.20;;;2.90;;
19754;SDS011;10036;47.812;9.274;2022-07-29T04:23:50;3.25;;;2.75;;
19754;SDS011;10036;47.812;9.274;2022-07-29T04:26:18;4.40;;;3.25;;
19754;SDS011;10036;47.812;9.274;2022-07-29T04:28:45;4.22;;;3.08;;
19754;SDS011;10036;47.812;9.274;2022-07-29T04:31:14;4.72;;;3.58;;
19754;SDS011;10036;47.812;9.274;2022-07-29T04:33:41;3.40;;;3.10;;
19754;SDS011;10036;47.812;9.274;2022-07-29T04:36:07;3.92;;;2.60;;
19754;SDS011;10036;47.812;9.274;2022-07-29T04:38:36;6.85;;;2.67;;
19754;SDS011;10036;47.812;9.274;2022-07-29T04:41:03;3.15;;;2.78;;
19754;SDS011;10036;47.812;9.274;2022-07-29T04:43:30;6.80;;;2.72;;
19754;SDS011;10036;47.812;9.274;2022-07-29T04:45:57;3.65;;;2.50;;
19754;SDS011;10036;47.812;9.274;2022-07-29T04:48:25;3.17;;;2.60;;
19754;SDS011;10036;47.812;9.274;2022-07-29T04:50:52;4.07;;;2.30;;
19754;SDS011;10036;47.812;9.274;2022-07-29T04:53:19;4.28;;;2.63;;
19754;SDS011;10036;47.812;9.274;2022-07-29T04:55:46;5.68;;;2.58;;
19754;SDS011;10036;47.812;9.274;2022-07-29T04:58:12;5.53;;;2.97;;
19754;SDS011;10036;47.812;9.274;2022-07-29T05:00:39;5.65;;;3.20;;
19754;SDS011;10036;47.812;9.274;2022-07-29T05:03:06;3.58;;;2.83;;
19754;SDS011;10036;47.812;9.274;2022-07-29T05:05:35;7.00;;;2.90;;
19754;SDS011;10036;47.812;9.274;2022-07-29T05:08:02;3.60;;;2.92;;
19754;SDS011;10036;47.812;9.274;2022-07-29T05:10:29;8.80;;;6.40;;
19754;SDS011;10036;47.812;9.274;2022-07-29T05:12:56;9.77;;;6.05;;
19754;SDS011;10036;47.812;9.274;2022-07-29T05:15:23;4.78;;;3.65;;
19754;SDS011;10036;47.812;9.274;2022-07-29T05:17:49;5.72;;;3.38;;
19754;SDS011;10036;47.812;9.274;2022-07-29T05:20:16;4.68;;;3.38;;
19754;SDS011;10036;47.812;9.274;2022-07-29T05:22:45;4.32;;;3.08;;
19754;SDS011;10036;47.812;9.274;2022-07-29T05:25:12;4.88;;;3.15;;
19754;SDS011;10036;47.812;9.274;2022-07-29T05:27:39;5.38;;;3.00;;
19754;SDS011;10036;47.812;9.274;2022-07-29T05:30:06;5.55;;;3.17;;
19754;SDS011;10036;47.812;9.274;2022-07-29T05:32:34;4.35;;;3.10;;
19754;SDS011;10036;47.812;9.274;2022-07-29T05:35:01;6.63;;;3.30;;
19754;SDS011;10036;47.812;9.274;2022-07-29T05:37:27;6.47;;;3.00;;
19754;SDS011;10036;47.812;9.274;2022-07-29T05:39:56;9.75;;;3.33;;
19754;SDS011;10036;47.812;9.274;2022-07-29T05:42:23;4.93;;;3.10;;
19754;SDS011;10036;47.812;9.274;2022-07-29T05:44:50;4.03;;;3.00;;
19754;SDS011;10036;47.812;9.274;2022-07-29T05:47:16;3.95;;;3.10;;
19754;SDS011;10036;47.812;9.274;2022-07-29T05:49:43;3.95;;;2.88;;
19754;SDS011;10036;47.812;9.274;2022-07-29T05:52:11;7.05;;;2.90;;
19754;SDS011;10036;47.812;9.274;2022-07-29T05:54:38;4.20;;;2.78;;
19754;SDS011;10036;47.812;9.274;2022-07-29T05:57:07;3.88;;;2.83;;
19754;SDS011;10036;47.812;9.274;2022-07-29T05:59:35;6.03;;;2.80;;
19754;SDS011;10036;47.812;9.274;2022-07-29T06:02:02;5.63;;;3.13;;
19754;SDS011;10036;47.812;9.274;2022-07-29T06:04:30;4.65;;;3.00;;
19754;SDS011;10036;47.812;9.274;2022-07-29T06:06:56;3.97;;;3.15;;
19754;SDS011;10036;47.812;9.274;2022-07-29T06:09:23;4.53;;;3.17;;
19754;SDS011;10036;47.812;9.274;2022-07-29T06:11:51;5.75;;;2.97;;
19754;SDS011;10036;47.812;9.274;2022-07-29T06:14:19;3.97;;;2.72;;
19754;SDS011;10036;47.812;9.274;2022-07-29T06:16:46;5.95;;;3.45;;
19754;SDS011;10036;47.812;9.274;2022-07-29T06:19:13;4.03;;;2.88;;
19754;SDS011;10036;47.812;9.274;2022-07-29T06:21:41;4.70;;;3.13;;
19754;SDS011;10036;47.812;9.274;2022-07-29T06:24:08;4.10;;;3.15;;
19754;SDS011;10036;47.812;9.274;2022-07-29T06:26:37;5.30;;;3.72;;
19754;SDS011;10036;47.812;9.274;2022-07-29T06:29:04;6.20;;;3.50;;
19754;SDS011;10036;47.812;9.274;2022-07-29T06:31:33;7.75;;;3.92;;
19754;SDS011;10036;47.812;9.274;2022-07-29T06:34:00;9.82;;;3.92;;
19754;SDS011;10036;47.812;9.274;2022-07-29T06:36:27;4.50;;;3.55;;
19754;SDS011;10036;47.812;9.274;2022-07-29T06:38:54;6.18;;;3.35;;
19754;SDS011;10036;47.812;9.274;2022-07-29T06:41:21;4.32;;;3.00;;
19754;SDS011;10036;47.812;9.274;2022-07-29T06:43:48;4.15;;;2.78;;
19754;SDS011;10036;47.812;9.274;2022-07-29T06:46:16;4.65;;;2.92;;
19754;SDS011;10036;47.812;9.274;2022-07-29T06:48:45;2.92;;;2.63;;
19754;SDS011;10036;47.812;9.274;2022-07-29T06:51:13;4.30;;;2.70;;
19754;SDS011;10036;47.812;9.274;2022-07-29T06:53:41;4.05;;;2.65;;
19754;SDS011;10036;47.812;9.274;2022-07-29T06:56:08;3.63;;;2.60;;
19754;SDS011;10036;47.812;9.274;2022-07-29T06:58:35;2.72;;;2.50;;
19754;SDS011;10036;47.812;9.274;2022-07-29T07:01:03;4.88;;;2.60;;
19754;SDS011;10036;47.812;9.274;2022-07-29T07:03:32;4.35;;;3.20;;
19754;SDS011;10036;47.812;9.274;2022-07-29T07:06:00;4.97;;;3.40;;
19754;SDS011;10036;47.812;9.274;2022-07-29T07:08:27;3.92;;;3.40;;
19754;SDS011;10036;47.812;9.274;2022-07-29T07:10:54;5.10;;;3.47;;
19754;SDS011;10036;47.812;9.274;2022-07-29T07:13:22;4.65;;;4.07;;
19754;SDS011;10036;47.812;9.274;2022-07-29T07:15:49;6.28;;;3.70;;
19754;SDS011;10036;47.812;9.274;2022-07-29T07:18:17;6.13;;;4.40;;
19754;SDS011;10036;47.812;9.274;2022-07-29T07:20:44;4.97;;;3.70;;
19754;SDS011;10036;47.812;9.274;2022-07-29T07:23:12;7.82;;;3.38;;
19754;SDS011;10036;47.812;9.274;2022-07-29T07:25:39;4.05;;;3.33;;
19754;SDS011;10036;47.812;9.274;2022-07-29T07:28:07;4.30;;;2.70;;
19754;SDS011;10036;47.812;9.274;2022-07-29T07:30:34;3.55;;;2.70;;
19754;SDS011;10036;47.812;9.274;2022-07-29T07:33:01;4.30;;;2.75;;
19754;SDS011;10036;47.812;9.274;2022-07-29T07:35:28;5.15;;;2.83;;
19754;SDS011;10036;47.812;9.274;2022-07-29T07:37:55;2.88;;;2.35;;
19754;SDS011;10036;47.812;9.274;2022-07-29T07:40:24;2.42;;;2.22;;
19754;SDS011;10036;47.812;9.274;2022-07-29T07:42:51;2.95;;;2.03;;
19754;SDS011;10036;47.812;9.274;2022-07-29T07:45:18;2.30;;;2.10;;
19754;SDS011;10036;47.812;9.274;2022-07-29T07:47:46;2.58;;;2.38;;
19754;SDS011;10036;47.812;9.274;2022-07-29T07:50:13;4.85;;;2.40;;
19754;SDS011;10036;47.812;9.274;2022-07-29T07:52:45;2.22;;;1.98;;
19754;SDS011;10036;47.812;9.274;2022-07-29T07:55:13;7.00;;;3.00;;
19754;SDS011;10036;47.812;9.274;2022-07-29T07:57:42;2.60;;;2.40;;
19754;SDS011;10036;47.812;9.274;2022-07-29T08:00:09;3.17;;;2.00;;
19754;SDS011;10036;47.812;9.274;2022-07-29T08:02:38;2.03;;;1.80;;
19754;SDS011;10036;47.812;9.274;2022-07-29T08:05:05;2.40;;;1.95;;
19754;SDS011;10036;47.812;9.274;2022-07-29T08:07:33;4.65;;;1.70;;
19754;SDS011;10036;47.812;9.274;2022-07-29T08:10:00;2.33;;;2.05;;
19754;SDS011;10036;47.812;9.274;2022-07-29T08:12:27;2.17;;;2.00;;
19754;SDS011;10036;47.812;9.274;2022-07-29T08:14:56;1.98;;;1.80;;
19754;SDS011;10036;47.812;9.274;2022-07-29T08:17:23;2.50;;;2.30;;
19754;SDS011;10036;47.812;9.274;2022-07-29T08:19:50;2.88;;;2.10;;
19754;SDS011;10036;47.812;9.274;2022-07-29T08:22:17;2.17;;;1.98;;
19754;SDS011;10036;47.812;9.274;2022-07-29T08:24:44;2.20;;;2.00;;
19754;SDS011;10036;47.812;9.274;2022-07-29T08:27:17;2.97;;;2.40;;
19754;SDS011;10036;47.812;9.274;2022-07-29T08:29:45;3.83;;;2.45;;
19754;SDS011;10036;47.812;9.274;2022-07-29T08:32:13;2.55;;;2.35;;
19754;SDS011;10036;47.812;9.274;2022-07-29T08:34:40;2.50;;;2.30;;
19754;SDS011;10036;47.812;9.274;2022-07-29T08:37:09;2.42;;;2.22;;
19754;SDS011;10036;47.812;9.274;2022-07-29T08:39:36;2.90;;;2.60;;
19754;SDS011;10036;47.812;9.274;2022-07-29T08:42:03;2.95;;;2.42;;
19754;SDS011;10036;47.812;9.274;2022-07-29T08:44:31;3.63;;;2.40;;
19754;SDS011;10036;47.812;9.274;2022-07-29T08:46:59;5.28;;;2.47;;
19754;SDS011;10036;47.812;9.274;2022-07-29T08:49:27;2.72;;;2.47;;
19754;SDS011;10036;47.812;9.274;2022-07-29T08:51:54;2.72;;;2.53;;
19754;SDS011;10036;47.812;9.274;2022-07-29T08:54:22;2.70;;;2.50;;
19754;SDS011;10036;47.812;9.274;2022-07-29T08:56:51;3.25;;;2.58;;
19754;SDS011;10036;47.812;9.274;2022-07-29T08:59:19;2.58;;;2.38;;
19754;SDS011;10036;47.812;9.274;2022-07-29T09:01:48;2.97;;;2.55;;
19754;SDS011;10036;47.812;9.274;2022-07-29T09:04:17;3.97;;;2.40;;
19754;SDS011;10036;47.812;9.274;2022-07-29T09:06:49;2.50;;;2.30;;
19754;SDS011;10036;47.812;9.274;2022-07-29T09:09:18;4.18;;;2.55;;
19754;SDS011;10036;47.812;9.274;2022-07-29T09:11:45;2.30;;;2.10;;
19754;SDS011;10036;47.812;9.274;2022-07-29T09:14:13;3.25;;;2.70;;
19754;SDS011;10036;47.812;9.274;2022-07-29T09:16:44;4.45;;;2.58;;
19754;SDS011;10036;47.812;9.274;2022-07-29T09:19:19;2.92;;;2.42;;
19754;SDS011;10036;47.812;9.274;2022-07-29T09:21:48;3.22;;;2.50;;
19754;SDS011;10036;47.812;9.274;2022-07-29T09:24:24;3.22;;;2.22;;
19754;SDS011;10036;47.812;9.274;2022-07-29T09:26:53;2.83;;;2.50;;
19754;SDS011;10036;47.812;9.274;2022-07-29T09:29:21;2.92;;;2.40;;
19754;SDS011;10036;47.812;9.274;2022-07-29T09:31:50;2.45;;;2.25;;
19754;SDS011;10036;47.812;9.274;2022-07-29T09:34:21;3.25;;;2.42;;
19754;SDS011;10036;47.812;9.274;2022-07-29T09:36:53;3.05;;;2.53;;
19754;SDS011;10036;47.812;9.274;2022-07-29T09:39:27;3.78;;;2.50;;
19754;SDS011;10036;47.812;9.274;2022-07-29T09:41:56;3.47;;;2.40;;
19754;SDS011;10036;47.812;9.274;2022-07-29T09:44:25;2.85;;;2.65;;
19754;SDS011;10036;47.812;9.274;2022-07-29T09:46:53;3.17;;;2.72;;
19754;SDS011;10036;47.812;9.274;2022-07-29T09:49:27;3.72;;;2.45;;
19754;SDS011;10036;47.812;9.274;2022-07-29T09:52:04;2.63;;;2.30;;
19754;SDS011;10036;47.812;9.274;2022-07-29T09:54:32;3.10;;;2.53;;
19754;SDS011;10036;47.812;9.274;2022-07-29T09:57:02;3.40;;;2.63;;
19754;SDS011;10036;47.812;9.274;2022-07-29T09:59:30;2.65;;;2.45;;
19754;SDS011;10036;47.812;9.274;2022-07-29T10:01:57;4.70;;;2.55;;
19754;SDS011;10036;47.812;9.274;2022-07-29T10:04:28;2.78;;;2.58;;
19754;SDS011;10036;47.812;9.274;2022-07-29T10:07:05;4.50;;;2.80;;
19754;SDS011;10036;47.812;9.274;2022-07-29T10:09:32;3.58;;;3.28;;
19754;SDS011;10036;47.812;9.274;2022-07-29T10:12:03;3.90;;;2.70;;
19754;SDS011;10036;47.812;9.274;2022-07-29T10:14:32;3.20;;;2.90;;
19754;SDS011;10036;47.812;9.274;2022-07-29T10:16:59;3.47;;;2.55;;
19754;SDS011;10036;47.812;9.274;2022-07-29T10:19:27;3.15;;;2.83;;
19754;SDS011;10036;47.812;9.274;2022-07-29T10:21:56;2.80;;;2.60;;
19754;SDS011;10036;47.812;9.274;2022-07-29T10:24:26;3.42;;;2.70;;
19754;SDS011;10036;47.812;9.274;2022-07-29T10:26:54;2.70;;;2.50;;
19754;SDS011;10036;47.812;9.274;2022-07-29T10:29:22;3.97;;;3.20;;
19754;SDS011;10036;47.812;9.274;2022-07-29T10:31:51;3.40;;;3.10;;
19754;SDS011;10036;47.812;9.274;2022-07-29T10:34:30;3.83;;;2.65;;
19754;SDS011;10036;47.812;9.274;2022-07-29T10:37:12;3.95;;;2.90;;
19754;SDS011;10036;47.812;9.274;2022-07-29T10:39:50;3.30;;;2.95;;
19754;SDS011;10036;47.812;9.274;2022-07-29T10:42:27;3.22;;;2.92;;
19754;SDS011;10036;47.812;9.274;2022-07-29T10:44:55;7.07;;;3.20;;
19754;SDS011;10036;47.812;9.274;2022-07-29T10:47:23;4.28;;;3.30;;
19754;SDS011;10036;47.812;9.274;2022-07-29T10:49:57;3.45;;;3.15;;
19754;SDS011;10036;47.812;9.274;2022-07-29T10:52:36;4.47;;;3.05;;
19754;SDS011;10036;47.812;9.274;2022-07-29T10:55:33;3.83;;;2.90;;
19754;SDS011;10036;47.812;9.274;2022-07-29T10:58:13;3.40;;;2.90;;
19754;SDS011;10036;47.812;9.274;2022-07-29T11:00:41;4.35;;;3.00;;
19754;SDS011;10036;47.812;9.274;2022-07-29T11:03:08;3.13;;;2.85;;
19754;SDS011;10036;47.812;9.274;2022-07-29T11:05:51;3.25;;;3.00;;
19754;SDS011;10036;47.812;9.274;2022-07-29T11:08:22;3.63;;;2.88;;
19754;SDS011;10036;47.812;9.274;2022-07-29T11:10:52;3.60;;;2.85;;
19754;SDS011;10036;47.812;9.274;2022-07-29T11:13:50;4.22;;;2.88;;
19754;SDS011;10036;47.812;9.274;2022-07-29T11:16:20;2.85;;;2.55;;
19754;SDS011;10036;47.812;9.274;2022-07-29T11:21:47;4.25;;;2.75;;
19754;SDS011;10036;47.812;9.274;2022-07-29T11:24:15;3.15;;;2.60;;
19754;SDS011;10036;47.812;9.274;2022-07-29T11:26:44;2.97;;;2.63;;
19754;SDS011;10036;47.812;9.274;2022-07-29T11:29:32;2.97;;;2.75;;
19754;SDS011;10036;47.812;9.274;2022-07-29T11:32:07;3.42;;;2.80;;
19754;SDS011;10036;47.812;9.274;2022-07-29T11:34:36;2.83;;;2.60;;
19754;SDS011;10036;47.812;9.274;2022-07-29T11:37:18;3.75;;;2.80;;
19754;SDS011;10036;47.812;9.274;2022-07-29T11:39:47;5.03;;;3.10;;
19754;SDS011;10036;47.812;9.274;2022-07-29T11:42:49;2.88;;;2.67;;
19754;SDS011;10036;47.812;9.274;2022-07-29T11:45:18;3.03;;;2.72;;
19754;SDS011;10036;47.812;9.274;2022-07-29T11:47:48;4.90;;;2.70;;
19754;SDS011;10036;47.812;9.274;2022-07-29T11:50:18;4.82;;;2.38;;
19754;SDS011;10036;47.812;9.274;2022-07-29T11:52:57;3.38;;;2.60;;
19754;SDS011;10036;47.812;9.274;2022-07-29T11:55:24;2.95;;;2.55;;
19754;SDS011;10036;47.812;9.274;2022-07-29T11:57:53;2.60;;;2.40;;
19754;SDS011;10036;47.812;9.274;2022-07-29T12:00:25;2.95;;;2.75;;
19754;SDS011;10036;47.812;9.274;2022-07-29T12:02:54;2.47;;;2.28;;
19754;SDS011;10036;47.812;9.274;2022-07-29T12:05:30;3.83;;;2.78;;
19754;SDS011;10036;47.812;9.274;2022-07-29T12:08:04;3.35;;;2.30;;
19754;SDS011;10036;47.812;9.274;2022-07-29T12:10:32;3.65;;;2.58;;
19754;SDS011;10036;47.812;9.274;2022-07-29T12:13:00;2.55;;;2.33;;
19754;SDS011;10036;47.812;9.274;2022-07-29T12:15:27;4.40;;;2.50;;
19754;SDS011;10036;47.812;9.274;2022-07-29T12:17:55;2.90;;;2.08;;
19754;SDS011;10036;47.812;9.274;2022-07-29T12:20:23;2.63;;;2.42;;
19754;SDS011;10036;47.812;9.274;2022-07-29T12:22:51;2.10;;;2.00;;
19754;SDS011;10036;47.812;9.274;2022-07-29T12:25:19;3.00;;;2.70;;
19754;SDS011;10036;47.812;9.274;2022-07-29T12:27:47;2.55;;;2.00;;
19754;SDS011;10036;47.812;9.274;2022-07-29T12:30:33;3.65;;;2.22;;
19754;SDS011;10036;47.812;9.274;2022-07-29T12:33:15;3.40;;;2.20;;
19754;SDS011;10036;47.812;9.274;2022-07-29T12:35:45;4.82;;;2.15;;
19754;SDS011;10036;47.812;9.274;2022-07-29T12:38:13;2.30;;;2.20;;
19754;SDS011;10036;47.812;9.274;2022-07-29T12:40:41;2.15;;;1.90;;
19754;SDS011;10036;47.812;9.274;2022-07-29T12:43:10;2.13;;;1.92;;
19754;SDS011;10036;47.812;9.274;2022-07-29T12:45:41;2.25;;;2.05;;
19754;SDS011;10036;47.812;9.274;2022-07-29T12:48:08;3.08;;;2.28;;
19754;SDS011;10036;47.812;9.274;2022-07-29T12:50:36;1.92;;;1.83;;
19754;SDS011;10036;47.812;9.274;2022-07-29T12:53:17;3.17;;;2.38;;
19754;SDS011;10036;47.812;9.274;2022-07-29T12:55:45;3.60;;;2.03;;
19754;SDS011;10036;47.812;9.274;2022-07-29T12:58:14;2.63;;;1.90;;
19754;SDS011;10036;47.812;9.274;2022-07-29T13:01:00;2.78;;;2.10;;
19754;SDS011;10036;47.812;9.274;2022-07-29T13:03:28;5.10;;;2.22;;
19754;SDS011;10036;47.812;9.274;2022-07-29T13:05:55;4.00;;;2.30;;
19754;SDS011;10036;47.812;9.274;2022-07-29T13:08:22;2.47;;;2.10;;
19754;SDS011;10036;47.812;9.274;2022-07-29T13:10:49;2.53;;;2.33;;
19754;SDS011;10036;47.812;9.274;2022-07-29T13:13:16;2.55;;;2.30;;
19754;SDS011;10036;47.812;9.274;2022-07-29T13:15:43;3.70;;;2.25;;
19754;SDS011;10036;47.812;9.274;2022-07-29T13:18:29;3.45;;;2.28;;
19754;SDS011;10036;47.812;9.274;2022-07-29T13:20:57;2.88;;;2.10;;
19754;SDS011;10036;47.812;9.274;2022-07-29T13:23:37;3.83;;;2.03;;
19754;SDS011;10036;47.812;9.274;2022-07-29T13:26:04;2.05;;;1.95;;
19754;SDS011;10036;47.812;9.274;2022-07-29T13:28:32;3.42;;;2.63;;
19754;SDS011;10036;47.812;9.274;2022-07-29T13:30:59;2.67;;;1.90;;
19754;SDS011;10036;47.812;9.274;2022-07-29T13:33:26;3.65;;;2.10;;
19754;SDS011;10036;47.812;9.274;2022-07-29T13:35:54;2.85;;;1.92;;
19754;SDS011;10036;47.812;9.274;2022-07-29T13:38:21;3.00;;;2.20;;
19754;SDS011;10036;47.812;9.274;2022-07-29T13:40:48;2.50;;;2.30;;
19754;SDS011;10036;47.812;9.274;2022-07-29T13:43:15;4.18;;;2.17;;
19754;SDS011;10036;47.812;9.274;2022-07-29T13:45:42;2.20;;;2.00;;
19754;SDS011;10036;47.812;9.274;2022-07-29T13:48:09;4.13;;;2.90;;
19754;SDS011;10036;47.812;9.274;2022-07-29T13:50:36;3.88;;;2.35;;
19754;SDS011;10036;47.812;9.274;2022-07-29T13:53:04;3.35;;;3.05;;
19754;SDS011;10036;47.812;9.274;2022-07-29T13:55:31;6.22;;;2.33;;
19754;SDS011;10036;47.812;9.274;2022-07-29T13:57:58;2.97;;;2.33;;
19754;SDS011;10036;47.812;9.274;2022-07-29T14:00:26;5.22;;;2.65;;
19754;SDS011;10036;47.812;9.274;2022-07-29T14:02:53;3.28;;;2.10;;
19754;SDS011;10036;47.812;9.274;2022-07-29T14:05:19;5.22;;;2.53;;
19754;SDS011;10036;47.812;9.274;2022-07-29T14:07:46;2.55;;;2.33;;
19754;SDS011;10036;47.812;9.274;2022-07-29T14:10:15;3.08;;;2.40;;
19754;SDS011;10036;47.812;9.274;2022-07-29T14:12:41;2.85;;;2.33;;
19754;SDS011;10036;47.812;9.274;2022-07-29T14:15:08;3.72;;;2.55;;
19754;SDS011;10036;47.812;9.274;2022-07-29T14:17:35;3.78;;;2.72;;
19754;SDS011;10036;47.812;9.274;2022-07-29T14:20:02;4.65;;;2.70;;
19754;SDS011;10036;47.812;9.274;2022-07-29T14:22:30;4.00;;;2.13;;
19754;SDS011;10036;47.812;9.274;2022-07-29T14:24:58;3.85;;;1.60;;
19754;SDS011;10036;47.812;9.274;2022-07-29T14:27:26;1.83;;;1.55;;
19754;SDS011;10036;47.812;9.274;2022-07-29T14:29:53;4.18;;;1.60;;
19754;SDS011;10036;47.812;9.274;2022-07-29T14:32:20;2.80;;;1.45;;
19754;SDS011;10036;47.812;9.274;2022-07-29T14:34:47;2.60;;;1.60;;
19754;SDS011;10036;47.812;9.274;2022-07-29T14:37:14;2.03;;;1.77;;
19754;SDS011;10036;47.812;9.274;2022-07-29T14:39:41;3.03;;;1.90;;
19754;SDS011;10036;47.812;9.274;2022-07-29T14:42:08;3.72;;;1.90;;
19754;SDS011;10036;47.812;9.274;2022-07-29T14:44:37;2.45;;;2.10;;
19754;SDS011;10036;47.812;9.274;2022-07-29T14:47:04;2.08;;;1.70;;
19754;SDS011;10036;47.812;9.274;2022-07-29T14:49:32;2.20;;;2.00;;
19754;SDS011;10036;47.812;9.274;2022-07-29T14:51:58;2.05;;;1.80;;
19754;SDS011;10036;47.812;9.274;2022-07-29T14:54:26;2.45;;;2.00;;
19754;SDS011;10036;47.812;9.274;2022-07-29T14:56:52;2.95;;;2.15;;
19754;SDS011;10036;47.812;9.274;2022-07-29T14:59:22;3.75;;;2.30;;
19754;SDS011;10036;47.812;9.274;2022-07-29T15:01:50;4.43;;;2.22;;
19754;SDS011;10036;47.812;9.274;2022-07-29T15:04:17;3.92;;;2.70;;